Terminal Aerodrome Forecast
Issued by NWS

Current Version | Previous Version | Graphics & Text | Print | Product List | Glossary On
Versions: 1 2 3 4 5 6 7 8 9 10 11 12 13
000
FTUS41 KILN 220520
TAFLCK
TAF
KLCK 220520Z 2206/2306 36009KT P6SM -RA BKN070
      TEMPO 2206/2207 5SM -SHRA BKN050
     FM220900 02010KT P6SM BKN060
     FM221500 04010G16KT P6SM BKN070=

USA.gov is the U.S. government's official web portal to all federal, state and local government web resources and services.